CheckWX is a tool to help pilots better visualize weather data.  It is not intended as a substitute for an official pre-flight weather briefing.

07:08:22 UTC

KSDF METAR
Louisville International-Standiford Field Airport
Louisville, Kentucky, USA
Current

12 mins ago

KSDF 230656Z 28008KT 10SM OVC060 26/15 A3001 RMK AO2 SLP154 T02610150
Observed
Sep-23 @ 06:56 UTC
Wind
  • 280° at 8 KTS
Visibility
10 SM
Flight Rules
VFR
Cloud Levels
  • Overcast at 6,000' AGL
Temperature
26°C / 79°F
Dewpoint
15°C / 59°F
Humidity
51%
Altimeter
30.01" Hg
Pressure
1016.22 hPa
Previous

1 hour ago

KSDF 230556Z 22010KT 10SM FEW070 OVC095 27/14 A3000 RMK AO2 SLP152 T02670139 10300 20267 57000
Observed
Sep-23 @ 05:56 UTC
Wind
  • 220° at 10 KTS
Visibility
10 SM
Flight Rules
VFR
Cloud Levels
  • Few at 7,000' AGL
  • Overcast at 9,500' AGL
Temperature
27°C / 81°F
Dewpoint
14°C / 57°F
Heat Index
27°C / 81°F
Humidity
45%
Altimeter
30" Hg
Pressure
1015.92 hPa
Previous

2 hours ago

KSDF 230456Z 22008KT 10SM FEW080 BKN110 OVC200 27/13 A3000 RMK AO2 SLP151 T02670133 403330189
Observed
Sep-23 @ 04:56 UTC
Wind
  • 220° at 8 KTS
Visibility
10 SM
Flight Rules
VFR
Cloud Levels
  • Few at 8,000' AGL
  • Broken at 11,000' AGL
  • Overcast at 20,000' AGL
Temperature
27°C / 81°F
Dewpoint
13°C / 55°F
Heat Index
27°C / 81°F
Humidity
42%
Altimeter
30" Hg
Pressure
1015.92 hPa